Terminal Aerodrome Forecast
Issued by NWS Columbia, SC

Home | Current Version | Previous Version | Text Only | Print | Product List | Glossary On
Versions: 1 2 3 4 5 6 7 8 9 10 11 12 13 14 15 16 17 18 19 20 21 22 23 24 25 26 27 28 29 30 31 32 33 34 35
992
FTUS42 KCAE 230602 AAA
TAFCAE
TAF AMD
KCAE 230602Z 2306/2406 23015G22KT P6SM VCSH OVC015
     FM230700 23012G20KT P6SM SCT035 WS020/25035KT
     FM231300 21006KT 3SM -SHRA OVC009
     FM231800 28010KT 3SM -SHRA OVC009
     FM240000 28012G20KT P6SM BKN035=

USA.gov is the U.S. government's official web portal to all federal, state and local government web resources and services.